Litchfield, California
Current Conditions -  °F | °C
As of 4:35 AM on Wednesday 26 Nov 2014 (Local Time) from KRTS Reporting Station
Clear Clear  
Wind Chill: -2°   Ceiling: Unl
Heat Index: -2°   Visibility: 10mi
Dew Point: -5°   Wind: 3mph
Humidity: 80%   Direction: 330°NNW
Pressure: 30.43"   Gusts: NA
Location:  40.38°N, 120.39°W
Report Text: KRTS 261235Z AUTO 33003KT 10SM CLR M02/M05 A3043 RMK AO2
Loading
Personal Weather Stations






























Interactive Weather Map New forecast layout! Learn more

10-Day Weather Forecast

Advertisements
Track Severe Weather on mobile